createdAt,value
2019-05-11T00:00:00.348Z,2.33
2019-05-11T00:02:46.648Z,2.60
2019-05-11T00:05:33.281Z,2.75
2019-05-11T00:08:19.609Z,2.47
2019-05-11T00:11:05.881Z,3.58
2019-05-11T00:13:52.324Z,2.27
2019-05-11T00:16:38.796Z,2.02
2019-05-11T00:19:25.128Z,2.30
2019-05-11T00:22:12.307Z,2.67
2019-05-11T00:24:58.511Z,1.40
2019-05-11T00:27:45.065Z,1.90
2019-05-11T00:30:31.573Z,2.77
2019-05-11T00:33:17.996Z,3.10
2019-05-11T00:36:04.247Z,2.62
2019-05-11T00:38:50.939Z,2.90
2019-05-11T00:41:37.207Z,2.00
2019-05-11T00:44:23.717Z,4.45
2019-05-11T00:47:10.346Z,2.15
2019-05-11T00:49:56.879Z,3.33
2019-05-11T00:52:43.279Z,2.95
2019-05-11T00:55:29.780Z,3.45
2019-05-11T00:58:15.831Z,3.00
2019-05-11T01:01:02.563Z,2.52
2019-05-11T01:03:48.791Z,3.30
2019-05-11T01:06:35.129Z,2.08
2019-05-11T01:09:21.565Z,3.72
2019-05-11T01:12:08.067Z,1.65
2019-05-11T01:14:54.452Z,3.17
2019-05-11T01:17:41.064Z,2.02
2019-05-11T01:20:27.323Z,2.25
2019-05-11T01:23:13.914Z,3.05
2019-05-11T01:26:00.508Z,2.80
2019-05-11T01:28:48.012Z,1.35
2019-05-11T01:31:34.407Z,3.62
2019-05-11T01:34:20.921Z,2.80
2019-05-11T01:37:07.204Z,1.35
2019-05-11T01:39:53.867Z,2.47
2019-05-11T01:42:41.416Z,2.20
2019-05-11T01:45:27.876Z,4.80
2019-05-11T01:48:14.372Z,2.67
2019-05-11T01:51:01.123Z,2.15
2019-05-11T01:53:48.151Z,3.77
2019-05-11T01:56:35.024Z,3.10
2019-05-11T01:59:21.393Z,2.67
2019-05-11T02:02:07.772Z,2.02
2019-05-11T02:05:12.567Z,1.40
2019-05-11T02:08:00.988Z,2.35
2019-05-11T02:10:47.485Z,2.47
2019-05-11T02:13:34.040Z,5.20
2019-05-11T02:16:20.399Z,2.30
2019-05-11T02:19:07.059Z,1.77
2019-05-11T02:21:53.385Z,2.47
2019-05-11T02:24:39.868Z,3.02
2019-05-11T02:27:26.244Z,3.22
2019-05-11T02:30:13.805Z,1.55
2019-05-11T02:32:59.935Z,1.25
2019-05-11T02:35:46.542Z,2.22
2019-05-11T02:38:32.612Z,2.25
2019-05-11T02:41:34.457Z,3.05
2019-05-11T02:44:06.711Z,3.92
2019-05-11T02:46:53.042Z,3.75
2019-05-11T02:49:39.696Z,2.95
2019-05-11T02:52:27.348Z,2.85
2019-05-11T02:55:13.496Z,2.47
2019-05-11T02:58:00.067Z,1.90
2019-05-11T03:00:47.071Z,4.05
2019-05-11T03:03:33.894Z,3.75
2019-05-11T03:06:20.404Z,1.80
2019-05-11T03:09:06.988Z,5.42
2019-05-11T03:11:56.098Z,2.35
2019-05-11T03:14:41.183Z,1.75
2019-05-11T03:17:31.420Z,3.80
2019-05-11T03:20:17.653Z,2.85
2019-05-11T03:23:03.890Z,2.00
2019-05-11T03:25:49.883Z,2.15
2019-05-11T03:28:35.653Z,2.20
2019-05-11T03:31:22.013Z,2.22
2019-05-11T03:34:08.458Z,2.15
2019-05-11T03:36:54.880Z,4.85
2019-05-11T03:39:41.184Z,2.27
2019-05-11T03:42:27.823Z,2.17
2019-05-11T03:45:14.431Z,2.15
2019-05-11T03:48:00.668Z,1.98
2019-05-11T03:50:47.245Z,2.08
2019-05-11T03:53:33.751Z,1.85
2019-05-11T03:56:19.680Z,2.83
2019-05-11T03:59:06.149Z,2.37
2019-05-11T04:01:52.500Z,1.65
2019-05-11T04:04:38.913Z,2.42
2019-05-11T04:07:25.373Z,2.47
2019-05-11T04:10:11.867Z,3.92
2019-05-11T04:12:59.386Z,1.70
2019-05-11T04:15:46.100Z,3.12
2019-05-11T04:18:32.229Z,2.08
2019-05-11T04:21:18.677Z,1.62
2019-05-11T04:24:04.927Z,1.32
2019-05-11T04:26:51.524Z,2.00
2019-05-11T04:29:37.896Z,1.82
2019-05-11T04:32:24.282Z,1.90
2019-05-11T04:35:10.601Z,2.33
2019-05-11T04:37:57.027Z,2.60
2019-05-11T04:40:43.203Z,2.62
2019-05-11T04:43:29.690Z,2.37
2019-05-11T04:46:18.414Z,3.42
2019-05-11T04:49:04.581Z,2.27
2019-05-11T04:51:51.032Z,1.72
2019-05-11T04:54:37.716Z,4.83
2019-05-11T04:57:24.076Z,2.90
2019-05-11T05:00:10.776Z,1.87
2019-05-11T05:02:56.839Z,2.52
2019-05-11T05:05:43.220Z,2.40
2019-05-11T05:08:30.375Z,2.12
2019-05-11T05:11:16.563Z,2.50
2019-05-11T05:14:08.215Z,1.92
2019-05-11T05:16:50.807Z,3.60
2019-05-11T05:19:37.247Z,2.55
2019-05-11T05:22:23.531Z,2.67
2019-05-11T05:25:09.699Z,3.35
2019-05-11T05:27:56.339Z,1.77
2019-05-11T05:30:42.622Z,2.35
2019-05-11T05:33:29.472Z,3.42
2019-05-11T05:36:15.477Z,3.42
2019-05-11T05:39:02.171Z,2.52
2019-05-11T05:41:57.176Z,5.75
2019-05-11T05:44:37.742Z,3.08
2019-05-11T05:47:23.992Z,3.00
2019-05-11T05:50:10.537Z,1.72
2019-05-11T05:52:57.225Z,3.42
2019-05-11T05:55:43.514Z,2.08
2019-05-11T05:58:29.906Z,2.30
2019-05-11T06:01:16.252Z,2.70
2019-05-11T06:04:02.523Z,4.33
2019-05-11T06:06:48.861Z,4.62
2019-05-11T06:09:35.358Z,2.22
2019-05-11T06:12:22.655Z,2.47
2019-05-11T06:15:09.770Z,2.45
2019-05-11T06:17:59.927Z,1.50
2019-05-11T06:20:43.864Z,2.77
2019-05-11T06:23:30.515Z,2.95
2019-05-11T06:26:16.941Z,6.75
2019-05-11T06:29:03.264Z,5.85
2019-05-11T06:31:49.683Z,7.17
2019-05-11T06:34:35.976Z,6.03
2019-05-11T06:37:22.255Z,8.20
2019-05-11T06:40:09.681Z,9.58
2019-05-11T06:42:56.120Z,9.67
2019-05-11T06:45:42.383Z,6.40
2019-05-11T06:48:28.747Z,13.65
2019-05-11T06:51:15.303Z,11.05
2019-05-11T06:54:01.656Z,8.23
2019-05-11T06:56:48.189Z,8.30
2019-05-11T06:59:34.615Z,5.28
2019-05-11T07:02:21.062Z,5.00
2019-05-11T07:05:07.455Z,8.25
2019-05-11T07:07:54.047Z,4.30
2019-05-11T07:10:40.311Z,14.07
2019-05-11T07:13:26.416Z,8.50
2019-05-11T07:16:12.843Z,7.12
2019-05-11T07:18:59.293Z,5.92
2019-05-11T07:21:45.576Z,5.97
2019-05-11T07:24:33.227Z,9.35
2019-05-11T07:27:19.688Z,5.17
2019-05-11T07:30:06.429Z,6.20
2019-05-11T07:32:52.556Z,7.28
2019-05-11T07:35:39.015Z,4.08
2019-05-11T07:38:27.657Z,5.90
2019-05-11T07:41:13.413Z,6.00
2019-05-11T07:43:59.792Z,9.10
2019-05-11T07:46:48.305Z,6.62
2019-05-11T07:49:34.391Z,7.40
2019-05-11T07:52:20.807Z,4.75
2019-05-11T07:55:08.778Z,4.37
2019-05-11T07:57:55.712Z,9.83
2019-05-11T08:00:42.169Z,6.00
2019-05-11T08:03:28.679Z,6.08
2019-05-11T08:06:15.229Z,6.25
2019-05-11T08:09:01.494Z,7.92
2019-05-11T08:11:48.748Z,6.15
2019-05-11T08:14:52.011Z,5.85
2019-05-11T08:17:23.575Z,5.28
2019-05-11T08:20:11.227Z,5.17
2019-05-11T08:22:58.720Z,7.15
2019-05-11T08:25:48.438Z,6.15
2019-05-11T08:28:34.020Z,5.12
2019-05-11T08:31:20.454Z,5.97
2019-05-11T08:34:08.861Z,7.70
2019-05-11T08:36:54.785Z,8.15
2019-05-11T08:39:41.133Z,6.20
2019-05-11T08:42:28.849Z,5.45
2019-05-11T08:45:22.911Z,8.38
2019-05-11T08:48:04.179Z,6.30
2019-05-11T08:50:51.380Z,5.15
2019-05-11T08:53:38.746Z,6.67
2019-05-11T08:56:28.727Z,4.53
2019-05-11T08:59:14.568Z,4.40
2019-05-11T09:02:00.879Z,7.05
2019-05-11T09:04:48.362Z,17.70
2019-05-11T09:07:34.667Z,5.45
2019-05-11T09:10:21.192Z,9.03
2019-05-11T09:13:08.074Z,4.53
2019-05-11T09:15:54.877Z,8.00
2019-05-11T09:18:41.253Z,4.30
2019-05-11T09:21:31.511Z,5.12
2019-05-11T09:24:18.913Z,4.92
2019-05-11T09:27:07.661Z,6.03
2019-05-11T09:29:53.752Z,5.05
2019-05-11T09:32:40.268Z,7.37
2019-05-11T09:35:29.041Z,7.85
2019-05-11T09:38:14.491Z,8.53
2019-05-11T09:41:00.839Z,19.15
2019-05-11T09:43:48.388Z,5.05
2019-05-11T09:46:34.839Z,14.78
2019-05-11T09:49:22.403Z,5.58
2019-05-11T09:52:08.694Z,6.05
2019-05-11T09:54:55.025Z,7.70
2019-05-11T09:57:41.640Z,7.05
2019-05-11T10:00:30.120Z,7.53
2019-05-11T10:03:18.156Z,5.42
2019-05-11T10:06:04.566Z,5.10
2019-05-11T10:08:51.005Z,4.12
2019-05-11T10:11:40.057Z,6.67
2019-05-11T10:14:28.677Z,10.82
2019-05-11T10:17:14.483Z,4.47
2019-05-11T10:20:00.858Z,5.12
2019-05-11T10:22:48.680Z,8.63
2019-05-11T10:25:35.116Z,6.72
2019-05-11T10:28:21.164Z,5.22
2019-05-11T10:31:08.525Z,5.95
2019-05-11T10:33:57.907Z,5.80
2019-05-11T10:36:43.630Z,4.65
2019-05-11T10:39:29.988Z,8.23
2019-05-11T10:42:18.001Z,8.63
2019-05-11T10:45:05.444Z,7.12
2019-05-11T10:47:53.917Z,5.97
2019-05-11T10:50:39.641Z,4.72
2019-05-11T10:53:27.881Z,5.90
2019-05-11T10:56:13.917Z,6.08
2019-05-11T10:59:00.384Z,5.45
2019-05-11T11:01:48.398Z,5.53
2019-05-11T11:04:34.731Z,4.75
2019-05-11T11:07:22.215Z,4.87
2019-05-11T11:10:09.080Z,6.85
2019-05-11T11:12:57.758Z,4.83
2019-05-11T11:15:43.500Z,6.50
2019-05-11T11:18:30.020Z,3.45
2019-05-11T11:21:22.413Z,7.35
2019-05-11T11:24:04.427Z,2.40
2019-05-11T11:26:50.792Z,5.20
2019-05-11T11:29:38.788Z,5.28
2019-05-11T11:32:27.660Z,4.30
2019-05-11T11:35:13.860Z,3.02
2019-05-11T11:38:00.207Z,3.45
2019-05-11T11:40:48.207Z,3.83
2019-05-11T11:43:34.459Z,3.98
2019-05-11T11:46:20.961Z,5.33
2019-05-11T11:49:08.259Z,4.33
2019-05-11T11:51:54.951Z,4.00
2019-05-11T11:54:41.235Z,4.30
2019-05-11T11:57:28.425Z,3.45
2019-05-11T12:00:15.462Z,4.05
2019-05-11T12:03:01.653Z,2.87
2019-05-11T12:05:48.295Z,2.95
2019-05-11T12:08:34.763Z,5.40
2019-05-11T12:11:21.255Z,3.08
2019-05-11T12:14:08.663Z,4.10
2019-05-11T12:17:06.721Z,2.50
2019-05-11T12:19:43.215Z,4.28
2019-05-11T12:22:29.696Z,2.17
2019-05-11T12:25:18.309Z,3.30
2019-05-11T12:28:03.671Z,2.77
2019-05-11T12:30:49.840Z,3.65
2019-05-11T12:33:38.160Z,2.77
2019-05-11T12:36:23.880Z,4.33
2019-05-11T12:39:09.718Z,2.55
2019-05-11T12:41:58.251Z,2.10
2019-05-11T12:44:44.190Z,2.33
2019-05-11T12:47:30.043Z,2.45
2019-05-11T12:50:18.639Z,3.27
2019-05-11T12:53:05.038Z,2.50
2019-05-11T12:55:51.391Z,4.28
2019-05-11T12:58:39.559Z,2.67
2019-05-11T13:01:25.940Z,2.00
2019-05-11T13:04:11.956Z,1.40
2019-05-11T13:06:58.443Z,2.08
2019-05-11T13:09:44.901Z,2.55
2019-05-11T13:12:31.280Z,2.27
2019-05-11T13:15:17.841Z,1.70
2019-05-11T13:18:03.908Z,2.90
2019-05-11T13:20:50.016Z,1.65
2019-05-11T13:23:38.270Z,3.00
2019-05-11T13:26:24.447Z,4.05
2019-05-11T13:29:10.871Z,2.58
2019-05-11T13:31:59.122Z,2.42
2019-05-11T13:34:45.279Z,2.45
2019-05-11T13:37:31.795Z,2.02
2019-05-11T13:40:18.509Z,2.42
2019-05-11T13:43:08.295Z,1.95
2019-05-11T13:45:54.775Z,2.42
2019-05-11T13:48:41.383Z,1.12
2019-05-11T13:51:28.542Z,1.27
2019-05-11T13:54:15.131Z,2.62
2019-05-11T13:57:01.053Z,1.50
2019-05-11T13:59:47.835Z,2.80
2019-05-11T14:02:34.329Z,0.90
2019-05-11T14:05:20.805Z,1.82
2019-05-11T14:08:08.175Z,2.25
2019-05-11T14:10:54.603Z,2.42
2019-05-11T14:13:41.176Z,2.05
2019-05-11T14:16:27.825Z,1.35
2019-05-11T14:19:14.561Z,1.00
2019-05-11T14:22:01.166Z,1.95
2019-05-11T14:24:48.262Z,1.47
2019-05-11T14:27:34.955Z,1.10
2019-05-11T14:30:21.290Z,1.60
2019-05-11T14:33:08.759Z,1.60
2019-05-11T14:35:55.209Z,1.87
2019-05-11T14:38:41.612Z,2.40
2019-05-11T14:41:28.549Z,2.05
2019-05-11T14:44:17.944Z,2.33
2019-05-11T14:47:03.130Z,1.30
2019-05-11T14:49:49.977Z,1.45
2019-05-11T14:52:38.976Z,1.30
2019-05-11T14:55:24.549Z,0.78
2019-05-11T14:58:10.915Z,1.47
2019-05-11T15:00:58.317Z,1.12
2019-05-11T15:03:44.862Z,2.60
2019-05-11T15:06:32.720Z,1.30
2019-05-11T15:09:18.856Z,1.70
2019-05-11T15:12:05.272Z,1.95
2019-05-11T15:14:51.676Z,1.72
2019-05-11T15:17:39.610Z,1.32
2019-05-11T15:20:27.897Z,1.17
2019-05-11T15:23:14.111Z,1.62
2019-05-11T15:26:00.343Z,1.40
2019-05-11T15:28:48.607Z,1.35
2019-05-11T15:31:35.239Z,2.08
2019-05-11T15:34:21.759Z,2.12
2019-05-11T15:37:08.395Z,1.85
2019-05-11T15:40:10.767Z,1.42
2019-05-11T15:42:58.645Z,2.08
2019-05-11T15:45:45.458Z,1.80
2019-05-11T15:48:31.815Z,0.98
2019-05-11T15:51:18.922Z,2.08
2019-05-11T15:54:07.427Z,1.32
2019-05-11T15:56:53.097Z,1.80
2019-05-11T15:59:39.562Z,2.90
2019-05-11T16:02:25.936Z,1.67
2019-05-11T16:05:13.079Z,1.15
2019-05-11T16:08:01.793Z,1.07
2019-05-11T16:10:48.859Z,2.85
2019-05-11T16:13:34.889Z,2.30
2019-05-11T16:16:20.735Z,1.30
2019-05-11T16:19:13.914Z,1.85
2019-05-11T16:21:54.917Z,1.70
2019-05-11T16:24:41.538Z,3.90
2019-05-11T16:27:28.496Z,1.50
2019-05-11T16:30:20.915Z,1.25
2019-05-11T16:33:03.461Z,1.62
2019-05-11T16:35:50.013Z,3.52
2019-05-11T16:38:38.153Z,2.92
2019-05-11T16:41:24.876Z,2.80
2019-05-11T16:44:11.444Z,1.40
2019-05-11T16:46:58.695Z,1.20
2019-05-11T16:49:45.134Z,2.45
2019-05-11T16:52:31.740Z,1.50
2019-05-11T16:55:19.003Z,1.40
2019-05-11T16:58:08.009Z,2.17
2019-05-11T17:00:53.376Z,1.72
2019-05-11T17:03:39.411Z,3.47
2019-05-11T17:06:25.740Z,2.92
2019-05-11T17:09:12.190Z,1.42
2019-05-11T17:11:58.443Z,2.45
2019-05-11T17:14:58.414Z,2.15
2019-05-11T17:17:45.014Z,0.78
2019-05-11T17:20:31.487Z,1.87
2019-05-11T17:23:18.350Z,1.20
2019-05-11T17:26:04.923Z,2.27
2019-05-11T17:28:51.168Z,2.02
2019-05-11T17:31:37.982Z,1.52
2019-05-11T17:34:24.329Z,2.47
2019-05-11T17:37:12.232Z,2.15
2019-05-11T17:39:58.670Z,1.37
2019-05-11T17:42:45.124Z,1.65
2019-05-11T17:45:31.940Z,1.25
2019-05-11T17:48:18.049Z,1.80
2019-05-11T17:51:18.394Z,1.57
2019-05-11T17:53:52.071Z,1.15
2019-05-11T17:56:38.973Z,1.07
2019-05-11T17:59:27.889Z,2.00
2019-05-11T18:02:13.240Z,1.70
2019-05-11T18:04:59.605Z,2.05
2019-05-11T18:07:46.303Z,1.70
2019-05-11T18:10:32.793Z,1.37
2019-05-11T18:13:19.157Z,0.85
2019-05-11T18:16:05.300Z,1.57
2019-05-11T18:18:51.638Z,1.00
2019-05-11T18:21:38.811Z,1.62
2019-05-11T18:24:25.547Z,2.37
2019-05-11T18:27:11.951Z,3.58
2019-05-11T18:29:58.404Z,2.37
2019-05-11T18:32:45.061Z,1.57
2019-05-11T18:35:31.568Z,3.60
2019-05-11T18:38:18.020Z,1.57
2019-05-11T18:41:04.363Z,1.87
2019-05-11T18:43:50.860Z,1.85
2019-05-11T18:46:38.826Z,2.08
2019-05-11T18:49:25.380Z,1.92
2019-05-11T18:52:11.684Z,3.02
2019-05-11T18:54:58.052Z,1.60
2019-05-11T18:57:44.508Z,2.95
2019-05-11T19:00:30.970Z,2.58
2019-05-11T19:03:19.213Z,1.40
2019-05-11T19:06:05.448Z,2.15
2019-05-11T19:08:52.011Z,2.45
2019-05-11T19:11:38.522Z,2.00
2019-05-11T19:14:28.155Z,2.52
2019-05-11T19:17:14.187Z,2.40
2019-05-11T19:20:00.455Z,1.20
2019-05-11T19:22:46.561Z,2.80
2019-05-11T19:25:32.775Z,1.60
2019-05-11T19:28:19.311Z,2.50
2019-05-11T19:31:08.379Z,2.15
2019-05-11T19:33:53.688Z,2.05
2019-05-11T19:36:39.929Z,1.37
2019-05-11T19:39:28.006Z,1.45
2019-05-11T19:42:14.239Z,2.62
2019-05-11T19:45:00.563Z,2.05
2019-05-11T19:47:48.397Z,1.90
2019-05-11T19:50:34.919Z,1.72
2019-05-11T19:53:21.160Z,2.83
2019-05-11T19:56:07.973Z,1.87
2019-05-11T19:58:57.452Z,2.15
2019-05-11T20:01:43.339Z,2.27
2019-05-11T20:04:29.684Z,1.02
2019-05-11T20:07:18.315Z,1.85
2019-05-11T20:10:05.154Z,1.00
2019-05-11T20:12:51.484Z,1.87
2019-05-11T20:15:38.289Z,1.20
2019-05-11T20:18:25.619Z,1.35
2019-05-11T20:21:18.694Z,1.67
2019-05-11T20:24:00.316Z,1.70
2019-05-11T20:26:46.653Z,2.85
2019-05-11T20:29:33.283Z,2.98
2019-05-11T20:32:19.198Z,0.90
2019-05-11T20:35:08.320Z,3.67
2019-05-11T20:37:53.480Z,1.72
2019-05-11T20:40:40.048Z,1.95
2019-05-11T20:43:27.964Z,3.33
2019-05-11T20:46:14.492Z,1.20
2019-05-11T20:49:00.838Z,1.47
2019-05-11T20:51:48.519Z,2.80
2019-05-11T20:54:35.048Z,2.58
2019-05-11T20:57:21.436Z,1.57
2019-05-11T21:00:09.284Z,2.62
2019-05-11T21:02:55.812Z,2.00
2019-05-11T21:05:42.234Z,2.50
2019-05-11T21:08:28.759Z,1.15
2019-05-11T21:11:17.651Z,1.77
2019-05-11T21:14:04.085Z,0.78
2019-05-11T21:16:50.488Z,2.22
2019-05-11T21:19:39.032Z,2.17
2019-05-11T21:22:24.660Z,2.30
2019-05-11T21:25:11.512Z,2.12
2019-05-11T21:27:57.972Z,3.17
2019-05-11T21:30:45.224Z,1.98
2019-05-11T21:33:31.524Z,3.90
2019-05-11T21:36:18.163Z,2.40
2019-05-11T21:39:08.004Z,2.05
2019-05-11T21:41:54.620Z,1.37
2019-05-11T21:44:41.171Z,2.08
2019-05-11T21:47:28.985Z,2.37
2019-05-11T21:50:15.410Z,3.25
2019-05-11T21:53:01.901Z,2.50
2019-05-11T21:55:48.236Z,2.22
2019-05-11T21:58:34.666Z,2.20
2019-05-11T22:01:21.267Z,2.17
2019-05-11T22:04:08.525Z,3.70
2019-05-11T22:06:55.595Z,3.17
2019-05-11T22:09:42.157Z,1.82
2019-05-11T22:12:28.357Z,3.08
2019-05-11T22:15:14.743Z,1.77
2019-05-11T22:18:01.239Z,8.45
2019-05-11T22:20:48.603Z,3.70
2019-05-11T22:23:34.968Z,2.52
2019-05-11T22:26:21.489Z,1.52
2019-05-11T22:29:07.954Z,1.05
2019-05-11T22:31:54.244Z,2.08
2019-05-11T22:34:40.683Z,2.05
2019-05-11T22:37:27.776Z,2.77
2019-05-11T22:40:13.947Z,3.67
2019-05-11T22:43:01.284Z,2.80
2019-05-11T22:45:48.619Z,2.12
2019-05-11T22:48:35.328Z,2.55
2019-05-11T22:51:21.759Z,2.10
2019-05-11T22:54:11.041Z,1.90
2019-05-11T22:56:58.699Z,2.40
2019-05-11T22:59:45.211Z,2.33
2019-05-11T23:02:31.711Z,2.00
2019-05-11T23:05:18.153Z,2.05
2019-05-11T23:08:04.555Z,1.82
2019-05-11T23:10:51.143Z,1.92
2019-05-11T23:13:38.265Z,2.83
2019-05-11T23:16:25.208Z,1.92
2019-05-11T23:19:11.157Z,2.22
2019-05-11T23:21:58.690Z,2.65
2019-05-11T23:24:45.368Z,1.50
2019-05-11T23:27:31.988Z,1.85
2019-05-11T23:30:19.714Z,3.77
2019-05-11T23:33:07.903Z,2.47
2019-05-11T23:35:54.199Z,1.92
2019-05-11T23:38:40.595Z,2.45
2019-05-11T23:41:28.839Z,3.37
2019-05-11T23:44:14.979Z,1.55
2019-05-11T23:47:01.831Z,1.87
2019-05-11T23:49:48.348Z,2.30
2019-05-11T23:52:34.659Z,1.72
2019-05-11T23:55:22.240Z,1.00
2019-05-11T23:58:08.376Z,2.80
